sensor_id;sensor_type;location;lat;lon;timestamp;P1;durP1;ratioP1;P2;durP2;ratioP2
11098;SDS011;12223;42.650;23.364;2024-02-23T00:00:01;18.38;;;9.35;;
11098;SDS011;12223;42.650;23.364;2024-02-23T00:02:30;19.25;;;9.38;;
11098;SDS011;12223;42.650;23.364;2024-02-23T00:04:56;22.70;;;10.88;;
11098;SDS011;12223;42.650;23.364;2024-02-23T00:07:22;21.80;;;10.40;;
11098;SDS011;12223;42.650;23.364;2024-02-23T00:09:47;23.35;;;9.73;;
11098;SDS011;12223;42.650;23.364;2024-02-23T00:12:13;19.75;;;9.90;;
11098;SDS011;12223;42.650;23.364;2024-02-23T00:14:39;20.33;;;9.90;;
11098;SDS011;12223;42.650;23.364;2024-02-23T00:17:04;20.95;;;9.73;;
11098;SDS011;12223;42.650;23.364;2024-02-23T00:19:30;20.70;;;10.43;;
11098;SDS011;12223;42.650;23.364;2024-02-23T00:21:56;18.50;;;9.38;;
11098;SDS011;12223;42.650;23.364;2024-02-23T00:24:24;17.02;;;9.05;;
11098;SDS011;12223;42.650;23.364;2024-02-23T00:26:49;20.95;;;10.32;;
11098;SDS011;12223;42.650;23.364;2024-02-23T00:29:16;21.45;;;10.15;;
11098;SDS011;12223;42.650;23.364;2024-02-23T00:31:42;20.23;;;10.18;;
11098;SDS011;12223;42.650;23.364;2024-02-23T00:34:08;20.27;;;9.82;;
11098;SDS011;12223;42.650;23.364;2024-02-23T00:36:36;19.58;;;9.43;;
11098;SDS011;12223;42.650;23.364;2024-02-23T00:39:03;18.38;;;8.90;;
11098;SDS011;12223;42.650;23.364;2024-02-23T00:41:30;19.40;;;10.20;;
11098;SDS011;12223;42.650;23.364;2024-02-23T00:43:55;18.02;;;10.00;;
11098;SDS011;12223;42.650;23.364;2024-02-23T00:46:21;16.98;;;9.32;;
11098;SDS011;12223;42.650;23.364;2024-02-23T00:48:46;18.40;;;10.30;;
11098;SDS011;12223;42.650;23.364;2024-02-23T00:51:12;16.25;;;8.00;;
11098;SDS011;12223;42.650;23.364;2024-02-23T00:53:37;16.73;;;8.45;;
11098;SDS011;12223;42.650;23.364;2024-02-23T00:56:03;18.08;;;9.68;;
11098;SDS011;12223;42.650;23.364;2024-02-23T00:58:28;18.85;;;9.98;;
11098;SDS011;12223;42.650;23.364;2024-02-23T01:00:54;16.63;;;7.97;;
11098;SDS011;12223;42.650;23.364;2024-02-23T01:03:20;17.08;;;7.88;;
11098;SDS011;12223;42.650;23.364;2024-02-23T01:05:45;15.23;;;7.88;;
11098;SDS011;12223;42.650;23.364;2024-02-23T01:08:11;16.17;;;7.93;;
11098;SDS011;12223;42.650;23.364;2024-02-23T01:10:36;14.02;;;7.55;;
11098;SDS011;12223;42.650;23.364;2024-02-23T01:13:02;13.23;;;6.85;;
11098;SDS011;12223;42.650;23.364;2024-02-23T01:15:27;14.93;;;7.93;;
11098;SDS011;12223;42.650;23.364;2024-02-23T01:17:52;14.35;;;8.23;;
11098;SDS011;12223;42.650;23.364;2024-02-23T01:20:18;15.88;;;6.65;;
11098;SDS011;12223;42.650;23.364;2024-02-23T01:22:43;13.77;;;7.43;;
11098;SDS011;12223;42.650;23.364;2024-02-23T01:25:09;16.88;;;9.05;;
11098;SDS011;12223;42.650;23.364;2024-02-23T01:27:34;18.15;;;7.82;;
11098;SDS011;12223;42.650;23.364;2024-02-23T01:29:59;15.43;;;5.70;;
11098;SDS011;12223;42.650;23.364;2024-02-23T01:32:25;15.70;;;7.47;;
11098;SDS011;12223;42.650;23.364;2024-02-23T01:34:50;13.27;;;5.93;;
11098;SDS011;12223;42.650;23.364;2024-02-23T01:37:17;12.98;;;7.00;;
11098;SDS011;12223;42.650;23.364;2024-02-23T01:39:43;15.27;;;7.10;;
11098;SDS011;12223;42.650;23.364;2024-02-23T01:42:08;11.77;;;5.57;;
11098;SDS011;12223;42.650;23.364;2024-02-23T01:44:34;8.90;;;4.70;;
11098;SDS011;12223;42.650;23.364;2024-02-23T01:46:59;14.52;;;5.75;;
11098;SDS011;12223;42.650;23.364;2024-02-23T01:49:25;12.90;;;6.75;;
11098;SDS011;12223;42.650;23.364;2024-02-23T01:51:55;10.85;;;4.88;;
11098;SDS011;12223;42.650;23.364;2024-02-23T01:54:22;14.93;;;5.68;;
11098;SDS011;12223;42.650;23.364;2024-02-23T01:56:47;12.20;;;6.25;;
11098;SDS011;12223;42.650;23.364;2024-02-23T01:59:13;13.93;;;6.72;;
11098;SDS011;12223;42.650;23.364;2024-02-23T02:01:39;13.63;;;6.72;;
11098;SDS011;12223;42.650;23.364;2024-02-23T02:04:07;12.68;;;6.78;;
11098;SDS011;12223;42.650;23.364;2024-02-23T02:06:33;16.52;;;7.40;;
11098;SDS011;12223;42.650;23.364;2024-02-23T02:08:58;14.60;;;7.38;;
11098;SDS011;12223;42.650;23.364;2024-02-23T02:11:23;14.85;;;8.02;;
11098;SDS011;12223;42.650;23.364;2024-02-23T02:13:49;15.05;;;6.22;;
11098;SDS011;12223;42.650;23.364;2024-02-23T02:16:15;13.30;;;6.22;;
11098;SDS011;12223;42.650;23.364;2024-02-23T02:18:40;12.57;;;6.82;;
11098;SDS011;12223;42.650;23.364;2024-02-23T02:21:05;13.02;;;7.53;;
11098;SDS011;12223;42.650;23.364;2024-02-23T02:23:31;11.82;;;6.03;;
11098;SDS011;12223;42.650;23.364;2024-02-23T02:25:57;11.82;;;5.53;;
11098;SDS011;12223;42.650;23.364;2024-02-23T02:28:23;9.80;;;5.80;;
11098;SDS011;12223;42.650;23.364;2024-02-23T02:30:50;14.10;;;5.72;;
11098;SDS011;12223;42.650;23.364;2024-02-23T02:33:17;13.52;;;6.93;;
11098;SDS011;12223;42.650;23.364;2024-02-23T02:35:43;9.77;;;6.25;;
11098;SDS011;12223;42.650;23.364;2024-02-23T02:38:10;12.52;;;6.10;;
11098;SDS011;12223;42.650;23.364;2024-02-23T02:40:36;15.73;;;7.80;;
11098;SDS011;12223;42.650;23.364;2024-02-23T02:43:02;14.32;;;6.78;;
11098;SDS011;12223;42.650;23.364;2024-02-23T02:45:28;13.38;;;6.63;;
11098;SDS011;12223;42.650;23.364;2024-02-23T02:47:54;12.68;;;6.65;;
11098;SDS011;12223;42.650;23.364;2024-02-23T02:50:19;14.93;;;7.05;;
11098;SDS011;12223;42.650;23.364;2024-02-23T02:52:45;11.95;;;6.78;;
11098;SDS011;12223;42.650;23.364;2024-02-23T02:55:10;11.35;;;6.15;;
11098;SDS011;12223;42.650;23.364;2024-02-23T02:57:35;12.35;;;6.35;;
11098;SDS011;12223;42.650;23.364;2024-02-23T03:00:01;12.95;;;7.63;;
11098;SDS011;12223;42.650;23.364;2024-02-23T03:02:33;12.48;;;6.07;;
11098;SDS011;12223;42.650;23.364;2024-02-23T03:04:58;13.32;;;5.82;;
11098;SDS011;12223;42.650;23.364;2024-02-23T03:07:25;16.42;;;7.78;;
11098;SDS011;12223;42.650;23.364;2024-02-23T03:09:50;12.52;;;4.53;;
11098;SDS011;12223;42.650;23.364;2024-02-23T03:12:16;17.67;;;6.53;;
11098;SDS011;12223;42.650;23.364;2024-02-23T03:14:42;9.35;;;5.47;;
11098;SDS011;12223;42.650;23.364;2024-02-23T03:17:08;13.23;;;5.60;;
11098;SDS011;12223;42.650;23.364;2024-02-23T03:19:37;12.43;;;5.28;;
11098;SDS011;12223;42.650;23.364;2024-02-23T03:22:03;11.85;;;6.38;;
11098;SDS011;12223;42.650;23.364;2024-02-23T03:24:29;11.73;;;5.70;;
11098;SDS011;12223;42.650;23.364;2024-02-23T03:26:55;12.48;;;5.90;;
11098;SDS011;12223;42.650;23.364;2024-02-23T03:29:21;10.27;;;5.45;;
11098;SDS011;12223;42.650;23.364;2024-02-23T03:31:49;11.65;;;6.75;;
11098;SDS011;12223;42.650;23.364;2024-02-23T03:34:15;12.43;;;5.97;;
11098;SDS011;12223;42.650;23.364;2024-02-23T03:36:40;12.63;;;5.90;;
11098;SDS011;12223;42.650;23.364;2024-02-23T03:39:06;12.30;;;6.00;;
11098;SDS011;12223;42.650;23.364;2024-02-23T03:41:31;11.85;;;5.47;;
11098;SDS011;12223;42.650;23.364;2024-02-23T03:43:57;11.38;;;5.75;;
11098;SDS011;12223;42.650;23.364;2024-02-23T03:46:23;13.80;;;6.30;;
11098;SDS011;12223;42.650;23.364;2024-02-23T03:48:49;11.82;;;5.65;;
11098;SDS011;12223;42.650;23.364;2024-02-23T03:51:14;11.05;;;5.70;;
11098;SDS011;12223;42.650;23.364;2024-02-23T03:53:40;13.05;;;6.65;;
11098;SDS011;12223;42.650;23.364;2024-02-23T03:56:05;17.48;;;7.60;;
11098;SDS011;12223;42.650;23.364;2024-02-23T03:58:31;14.13;;;7.85;;
11098;SDS011;12223;42.650;23.364;2024-02-23T04:00:56;12.43;;;6.97;;
11098;SDS011;12223;42.650;23.364;2024-02-23T04:03:22;13.30;;;6.10;;
11098;SDS011;12223;42.650;23.364;2024-02-23T04:05:47;13.65;;;5.55;;
11098;SDS011;12223;42.650;23.364;2024-02-23T04:08:12;13.57;;;6.32;;
11098;SDS011;12223;42.650;23.364;2024-02-23T04:10:38;15.52;;;6.95;;
11098;SDS011;12223;42.650;23.364;2024-02-23T04:13:04;17.58;;;8.65;;
11098;SDS011;12223;42.650;23.364;2024-02-23T04:15:30;15.13;;;6.70;;
11098;SDS011;12223;42.650;23.364;2024-02-23T04:17:55;15.75;;;7.30;;
11098;SDS011;12223;42.650;23.364;2024-02-23T04:20:20;11.55;;;6.32;;
11098;SDS011;12223;42.650;23.364;2024-02-23T04:22:46;14.27;;;6.03;;
11098;SDS011;12223;42.650;23.364;2024-02-23T04:25:11;13.20;;;6.70;;
11098;SDS011;12223;42.650;23.364;2024-02-23T04:27:37;12.60;;;7.45;;
11098;SDS011;12223;42.650;23.364;2024-02-23T04:30:03;14.57;;;7.53;;
11098;SDS011;12223;42.650;23.364;2024-02-23T04:32:29;13.70;;;6.18;;
11098;SDS011;12223;42.650;23.364;2024-02-23T04:34:55;10.70;;;5.80;;
11098;SDS011;12223;42.650;23.364;2024-02-23T04:37:20;14.73;;;6.25;;
11098;SDS011;12223;42.650;23.364;2024-02-23T04:39:46;13.85;;;6.30;;
11098;SDS011;12223;42.650;23.364;2024-02-23T04:42:11;16.55;;;7.40;;
11098;SDS011;12223;42.650;23.364;2024-02-23T04:44:37;10.20;;;5.50;;
11098;SDS011;12223;42.650;23.364;2024-02-23T04:47:02;29.08;;;10.48;;
11098;SDS011;12223;42.650;23.364;2024-02-23T04:49:27;13.52;;;5.97;;
11098;SDS011;12223;42.650;23.364;2024-02-23T04:51:53;10.50;;;5.60;;
11098;SDS011;12223;42.650;23.364;2024-02-23T04:54:19;14.52;;;6.22;;
11098;SDS011;12223;42.650;23.364;2024-02-23T04:56:44;12.05;;;6.43;;
11098;SDS011;12223;42.650;23.364;2024-02-23T04:59:10;13.45;;;5.85;;
11098;SDS011;12223;42.650;23.364;2024-02-23T05:01:36;12.15;;;5.45;;
11098;SDS011;12223;42.650;23.364;2024-02-23T05:04:02;19.85;;;7.65;;
11098;SDS011;12223;42.650;23.364;2024-02-23T05:06:28;16.73;;;7.65;;
11098;SDS011;12223;42.650;23.364;2024-02-23T05:08:54;16.20;;;8.13;;
11098;SDS011;12223;42.650;23.364;2024-02-23T05:11:19;15.85;;;6.20;;
11098;SDS011;12223;42.650;23.364;2024-02-23T05:13:45;17.30;;;8.63;;
11098;SDS011;12223;42.650;23.364;2024-02-23T05:16:10;14.07;;;6.38;;
11098;SDS011;12223;42.650;23.364;2024-02-23T05:18:38;16.98;;;7.95;;
11098;SDS011;12223;42.650;23.364;2024-02-23T05:21:03;9.02;;;5.40;;
11098;SDS011;12223;42.650;23.364;2024-02-23T05:23:29;12.80;;;6.30;;
11098;SDS011;12223;42.650;23.364;2024-02-23T05:25:54;14.70;;;6.85;;
11098;SDS011;12223;42.650;23.364;2024-02-23T05:28:19;13.23;;;6.35;;
11098;SDS011;12223;42.650;23.364;2024-02-23T05:30:48;22.30;;;7.15;;
11098;SDS011;12223;42.650;23.364;2024-02-23T05:33:13;21.80;;;7.45;;
11098;SDS011;12223;42.650;23.364;2024-02-23T05:35:39;13.23;;;6.93;;
11098;SDS011;12223;42.650;23.364;2024-02-23T05:38:04;12.68;;;6.35;;
11098;SDS011;12223;42.650;23.364;2024-02-23T05:40:31;11.73;;;5.90;;
11098;SDS011;12223;42.650;23.364;2024-02-23T05:42:58;16.92;;;8.43;;
11098;SDS011;12223;42.650;23.364;2024-02-23T05:45:23;12.40;;;7.68;;
11098;SDS011;12223;42.650;23.364;2024-02-23T05:47:49;15.13;;;7.20;;
11098;SDS011;12223;42.650;23.364;2024-02-23T05:50:14;18.40;;;8.18;;
11098;SDS011;12223;42.650;23.364;2024-02-23T05:52:39;11.70;;;7.38;;
11098;SDS011;12223;42.650;23.364;2024-02-23T05:55:05;12.93;;;7.60;;
11098;SDS011;12223;42.650;23.364;2024-02-23T05:57:31;18.50;;;8.68;;
11098;SDS011;12223;42.650;23.364;2024-02-23T05:59:56;11.93;;;6.20;;
11098;SDS011;12223;42.650;23.364;2024-02-23T06:02:22;15.23;;;8.10;;
11098;SDS011;12223;42.650;23.364;2024-02-23T06:04:48;14.25;;;7.97;;
11098;SDS011;12223;42.650;23.364;2024-02-23T06:07:13;15.23;;;7.65;;
11098;SDS011;12223;42.650;23.364;2024-02-23T06:09:42;14.13;;;7.28;;
11098;SDS011;12223;42.650;23.364;2024-02-23T06:12:08;14.65;;;7.82;;
11098;SDS011;12223;42.650;23.364;2024-02-23T06:14:34;33.25;;;10.32;;
11098;SDS011;12223;42.650;23.364;2024-02-23T06:17:00;15.98;;;9.02;;
11098;SDS011;12223;42.650;23.364;2024-02-23T06:19:25;20.40;;;9.60;;
11098;SDS011;12223;42.650;23.364;2024-02-23T06:21:50;13.40;;;8.43;;
11098;SDS011;12223;42.650;23.364;2024-02-23T06:24:16;16.42;;;8.55;;
11098;SDS011;12223;42.650;23.364;2024-02-23T06:26:42;13.70;;;8.25;;
11098;SDS011;12223;42.650;23.364;2024-02-23T06:29:07;15.90;;;8.10;;
11098;SDS011;12223;42.650;23.364;2024-02-23T06:31:36;14.73;;;8.95;;
11098;SDS011;12223;42.650;23.364;2024-02-23T06:34:03;20.55;;;10.68;;
11098;SDS011;12223;42.650;23.364;2024-02-23T06:36:29;21.08;;;12.00;;
11098;SDS011;12223;42.650;23.364;2024-02-23T06:38:54;17.27;;;11.00;;
11098;SDS011;12223;42.650;23.364;2024-02-23T06:41:20;14.10;;;8.18;;
11098;SDS011;12223;42.650;23.364;2024-02-23T06:43:45;14.60;;;9.13;;
11098;SDS011;12223;42.650;23.364;2024-02-23T06:46:11;13.30;;;9.50;;
11098;SDS011;12223;42.650;23.364;2024-02-23T06:48:37;26.10;;;10.15;;
11098;SDS011;12223;42.650;23.364;2024-02-23T06:51:04;18.83;;;9.70;;
11098;SDS011;12223;42.650;23.364;2024-02-23T06:53:30;28.70;;;12.45;;
11098;SDS011;12223;42.650;23.364;2024-02-23T06:55:56;17.55;;;9.25;;
11098;SDS011;12223;42.650;23.364;2024-02-23T06:58:21;19.92;;;10.52;;
11098;SDS011;12223;42.650;23.364;2024-02-23T07:00:46;13.52;;;8.95;;
11098;SDS011;12223;42.650;23.364;2024-02-23T07:03:12;13.73;;;9.18;;
11098;SDS011;12223;42.650;23.364;2024-02-23T07:05:39;17.70;;;9.07;;
11098;SDS011;12223;42.650;23.364;2024-02-23T07:08:07;15.15;;;9.68;;
11098;SDS011;12223;42.650;23.364;2024-02-23T07:10:32;15.43;;;10.05;;
11098;SDS011;12223;42.650;23.364;2024-02-23T07:12:58;16.30;;;9.50;;
11098;SDS011;12223;42.650;23.364;2024-02-23T07:15:23;16.17;;;10.63;;
11098;SDS011;12223;42.650;23.364;2024-02-23T07:17:49;18.95;;;9.55;;
11098;SDS011;12223;42.650;23.364;2024-02-23T07:20:15;15.48;;;9.70;;
11098;SDS011;12223;42.650;23.364;2024-02-23T07:22:43;14.57;;;8.55;;
11098;SDS011;12223;42.650;23.364;2024-02-23T07:25:09;15.35;;;8.90;;
11098;SDS011;12223;42.650;23.364;2024-02-23T07:27:35;15.45;;;7.97;;
11098;SDS011;12223;42.650;23.364;2024-02-23T07:30:00;20.08;;;8.43;;
11098;SDS011;12223;42.650;23.364;2024-02-23T07:32:26;18.48;;;9.70;;
11098;SDS011;12223;42.650;23.364;2024-02-23T07:34:52;17.17;;;9.65;;
11098;SDS011;12223;42.650;23.364;2024-02-23T07:37:17;21.75;;;10.98;;
11098;SDS011;12223;42.650;23.364;2024-02-23T07:39:43;19.00;;;9.73;;
11098;SDS011;12223;42.650;23.364;2024-02-23T07:42:08;17.55;;;9.15;;
11098;SDS011;12223;42.650;23.364;2024-02-23T07:44:35;21.48;;;10.05;;
11098;SDS011;12223;42.650;23.364;2024-02-23T07:47:02;18.70;;;9.27;;
11098;SDS011;12223;42.650;23.364;2024-02-23T07:49:28;15.70;;;9.45;;
11098;SDS011;12223;42.650;23.364;2024-02-23T07:51:53;18.77;;;8.00;;
11098;SDS011;12223;42.650;23.364;2024-02-23T07:54:19;16.95;;;8.55;;
11098;SDS011;12223;42.650;23.364;2024-02-23T07:56:45;14.30;;;7.28;;
11098;SDS011;12223;42.650;23.364;2024-02-23T07:59:10;15.15;;;8.60;;
11098;SDS011;12223;42.650;23.364;2024-02-23T08:01:36;13.68;;;7.07;;
11098;SDS011;12223;42.650;23.364;2024-02-23T08:04:01;10.10;;;5.50;;
11098;SDS011;12223;42.650;23.364;2024-02-23T08:06:28;15.85;;;6.97;;
11098;SDS011;12223;42.650;23.364;2024-02-23T08:08:54;14.82;;;6.60;;
11098;SDS011;12223;42.650;23.364;2024-02-23T08:11:20;15.23;;;6.68;;
11098;SDS011;12223;42.650;23.364;2024-02-23T08:13:45;8.40;;;5.53;;
11098;SDS011;12223;42.650;23.364;2024-02-23T08:16:11;16.92;;;6.03;;
11098;SDS011;12223;42.650;23.364;2024-02-23T08:18:36;10.23;;;4.28;;
11098;SDS011;12223;42.650;23.364;2024-02-23T08:21:02;15.98;;;6.68;;
11098;SDS011;12223;42.650;23.364;2024-02-23T08:23:28;13.07;;;6.93;;
11098;SDS011;12223;42.650;23.364;2024-02-23T08:25:55;17.67;;;6.95;;
11098;SDS011;12223;42.650;23.364;2024-02-23T08:28:22;14.88;;;7.05;;
11098;SDS011;12223;42.650;23.364;2024-02-23T08:30:48;12.80;;;6.43;;
11098;SDS011;12223;42.650;23.364;2024-02-23T08:33:15;16.00;;;6.90;;
11098;SDS011;12223;42.650;23.364;2024-02-23T08:35:40;15.82;;;7.65;;
11098;SDS011;12223;42.650;23.364;2024-02-23T08:38:06;13.23;;;7.47;;
11098;SDS011;12223;42.650;23.364;2024-02-23T08:40:34;12.10;;;6.47;;
11098;SDS011;12223;42.650;23.364;2024-02-23T08:43:00;7.22;;;3.92;;
11098;SDS011;12223;42.650;23.364;2024-02-23T08:45:25;18.65;;;7.55;;
11098;SDS011;12223;42.650;23.364;2024-02-23T08:47:50;9.85;;;5.30;;
11098;SDS011;12223;42.650;23.364;2024-02-23T08:50:16;16.90;;;7.35;;
11098;SDS011;12223;42.650;23.364;2024-02-23T08:52:41;17.08;;;8.05;;
11098;SDS011;12223;42.650;23.364;2024-02-23T08:55:07;13.43;;;6.00;;
11098;SDS011;12223;42.650;23.364;2024-02-23T08:57:32;9.88;;;5.03;;
11098;SDS011;12223;42.650;23.364;2024-02-23T08:59:58;11.60;;;5.03;;
11098;SDS011;12223;42.650;23.364;2024-02-23T09:02:24;16.95;;;7.43;;
11098;SDS011;12223;42.650;23.364;2024-02-23T09:04:49;9.80;;;4.90;;
11098;SDS011;12223;42.650;23.364;2024-02-23T09:07:15;11.60;;;5.72;;
11098;SDS011;12223;42.650;23.364;2024-02-23T09:09:40;12.77;;;6.22;;
11098;SDS011;12223;42.650;23.364;2024-02-23T09:12:06;13.45;;;7.63;;
11098;SDS011;12223;42.650;23.364;2024-02-23T09:14:50;10.70;;;6.25;;
11098;SDS011;12223;42.650;23.364;2024-02-23T09:17:15;9.82;;;6.20;;
11098;SDS011;12223;42.650;23.364;2024-02-23T09:19:41;14.32;;;6.63;;
11098;SDS011;12223;42.650;23.364;2024-02-23T09:22:06;8.63;;;5.60;;
11098;SDS011;12223;42.650;23.364;2024-02-23T09:24:32;12.63;;;6.05;;
11098;SDS011;12223;42.650;23.364;2024-02-23T09:26:57;13.82;;;6.57;;
11098;SDS011;12223;42.650;23.364;2024-02-23T09:29:22;9.02;;;6.82;;
11098;SDS011;12223;42.650;23.364;2024-02-23T09:31:48;9.10;;;4.38;;
11098;SDS011;12223;42.650;23.364;2024-02-23T09:34:14;10.27;;;6.22;;
11098;SDS011;12223;42.650;23.364;2024-02-23T09:36:39;6.68;;;4.30;;
11098;SDS011;12223;42.650;23.364;2024-02-23T09:39:04;5.50;;;4.13;;
11098;SDS011;12223;42.650;23.364;2024-02-23T09:41:31;9.18;;;5.80;;
11098;SDS011;12223;42.650;23.364;2024-02-23T09:44:01;8.43;;;5.13;;
11098;SDS011;12223;42.650;23.364;2024-02-23T09:46:26;9.77;;;5.40;;
11098;SDS011;12223;42.650;23.364;2024-02-23T09:48:52;7.82;;;4.72;;
11098;SDS011;12223;42.650;23.364;2024-02-23T09:51:20;7.60;;;4.00;;
11098;SDS011;12223;42.650;23.364;2024-02-23T09:53:48;10.23;;;4.05;;
11098;SDS011;12223;42.650;23.364;2024-02-23T09:56:14;8.10;;;3.28;;
11098;SDS011;12223;42.650;23.364;2024-02-23T09:58:42;7.88;;;3.17;;
11098;SDS011;12223;42.650;23.364;2024-02-23T10:01:09;11.80;;;7.43;;
11098;SDS011;12223;42.650;23.364;2024-02-23T10:03:36;8.00;;;3.85;;
11098;SDS011;12223;42.650;23.364;2024-02-23T10:06:03;5.70;;;3.38;;
11098;SDS011;12223;42.650;23.364;2024-02-23T10:08:29;9.60;;;4.40;;
11098;SDS011;12223;42.650;23.364;2024-02-23T10:10:55;8.95;;;4.30;;
11098;SDS011;12223;42.650;23.364;2024-02-23T10:13:24;7.60;;;3.25;;
11098;SDS011;12223;42.650;23.364;2024-02-23T10:15:50;6.55;;;3.90;;
11098;SDS011;12223;42.650;23.364;2024-02-23T10:18:16;4.90;;;2.65;;
11098;SDS011;12223;42.650;23.364;2024-02-23T10:20:41;4.32;;;2.55;;
11098;SDS011;12223;42.650;23.364;2024-02-23T10:23:07;3.78;;;2.42;;
11098;SDS011;12223;42.650;23.364;2024-02-23T10:25:34;4.22;;;3.10;;
11098;SDS011;12223;42.650;23.364;2024-02-23T10:28:04;5.90;;;3.05;;
11098;SDS011;12223;42.650;23.364;2024-02-23T10:30:30;4.20;;;2.92;;
11098;SDS011;12223;42.650;23.364;2024-02-23T10:32:56;4.82;;;3.42;;
11098;SDS011;12223;42.650;23.364;2024-02-23T10:35:23;6.85;;;2.75;;
11098;SDS011;12223;42.650;23.364;2024-02-23T10:37:49;5.90;;;2.63;;
11098;SDS011;12223;42.650;23.364;2024-02-23T10:40:16;3.83;;;2.33;;
11098;SDS011;12223;42.650;23.364;2024-02-23T10:42:46;5.05;;;2.17;;
11098;SDS011;12223;42.650;23.364;2024-02-23T10:45:19;7.53;;;2.50;;
11098;SDS011;12223;42.650;23.364;2024-02-23T10:47:49;5.05;;;2.13;;
11098;SDS011;12223;42.650;23.364;2024-02-23T10:50:16;3.47;;;2.10;;
11098;SDS011;12223;42.650;23.364;2024-02-23T10:52:44;3.00;;;2.53;;
11098;SDS011;12223;42.650;23.364;2024-02-23T10:55:12;4.55;;;2.35;;
11098;SDS011;12223;42.650;23.364;2024-02-23T10:57:37;3.38;;;2.28;;
11098;SDS011;12223;42.650;23.364;2024-02-23T11:00:04;4.45;;;2.25;;
11098;SDS011;12223;42.650;23.364;2024-02-23T11:02:47;3.45;;;2.42;;
11098;SDS011;12223;42.650;23.364;2024-02-23T11:05:15;9.00;;;2.30;;
11098;SDS011;12223;42.650;23.364;2024-02-23T11:07:41;3.22;;;1.92;;
11098;SDS011;12223;42.650;23.364;2024-02-23T11:10:07;3.20;;;2.15;;
11098;SDS011;12223;42.650;23.364;2024-02-23T11:12:34;4.07;;;2.08;;
11098;SDS011;12223;42.650;23.364;2024-02-23T11:15:00;5.28;;;2.40;;
11098;SDS011;12223;42.650;23.364;2024-02-23T11:17:27;3.88;;;2.42;;
11098;SDS011;12223;42.650;23.364;2024-02-23T11:19:54;3.65;;;2.50;;
11098;SDS011;12223;42.650;23.364;2024-02-23T11:22:24;2.53;;;1.80;;
11098;SDS011;12223;42.650;23.364;2024-02-23T11:25:04;3.58;;;2.05;;
11098;SDS011;12223;42.650;23.364;2024-02-23T11:27:31;5.55;;;2.20;;
11098;SDS011;12223;42.650;23.364;2024-02-23T11:30:02;9.85;;;2.20;;
11098;SDS011;12223;42.650;23.364;2024-02-23T11:35:06;5.20;;;2.58;;
11098;SDS011;12223;42.650;23.364;2024-02-23T11:37:32;10.40;;;2.72;;
11098;SDS011;12223;42.650;23.364;2024-02-23T11:39:59;2.80;;;2.33;;
11098;SDS011;12223;42.650;23.364;2024-02-23T11:42:26;2.88;;;1.70;;
11098;SDS011;12223;42.650;23.364;2024-02-23T11:44:52;3.83;;;2.38;;
11098;SDS011;12223;42.650;23.364;2024-02-23T11:47:19;3.60;;;2.08;;
11098;SDS011;12223;42.650;23.364;2024-02-23T11:49:44;4.22;;;2.70;;
11098;SDS011;12223;42.650;23.364;2024-02-23T11:52:10;3.25;;;2.33;;
11098;SDS011;12223;42.650;23.364;2024-02-23T11:54:35;3.75;;;2.50;;
11098;SDS011;12223;42.650;23.364;2024-02-23T11:57:01;2.38;;;2.08;;
11098;SDS011;12223;42.650;23.364;2024-02-23T11:59:26;2.53;;;1.90;;
11098;SDS011;12223;42.650;23.364;2024-02-23T12:01:52;3.00;;;2.05;;
11098;SDS011;12223;42.650;23.364;2024-02-23T12:04:17;3.15;;;2.20;;
11098;SDS011;12223;42.650;23.364;2024-02-23T12:06:43;6.00;;;1.95;;
11098;SDS011;12223;42.650;23.364;2024-02-23T12:09:08;2.53;;;2.05;;
11098;SDS011;12223;42.650;23.364;2024-02-23T12:11:34;3.08;;;1.80;;
11098;SDS011;12223;42.650;23.364;2024-02-23T12:14:00;3.78;;;2.20;;
11098;SDS011;12223;42.650;23.364;2024-02-23T12:16:32;4.90;;;2.00;;
11098;SDS011;12223;42.650;23.364;2024-02-23T12:19:00;6.68;;;2.17;;
11098;SDS011;12223;42.650;23.364;2024-02-23T12:21:26;2.65;;;2.13;;
11098;SDS011;12223;42.650;23.364;2024-02-23T12:23:51;1.80;;;1.40;;
11098;SDS011;12223;42.650;23.364;2024-02-23T12:26:18;1.85;;;1.45;;
11098;SDS011;12223;42.650;23.364;2024-02-23T12:28:44;4.57;;;2.17;;
11098;SDS011;12223;42.650;23.364;2024-02-23T12:31:10;2.35;;;1.83;;
11098;SDS011;12223;42.650;23.364;2024-02-23T12:33:37;1.80;;;1.60;;
11098;SDS011;12223;42.650;23.364;2024-02-23T12:36:06;3.42;;;1.88;;
11098;SDS011;12223;42.650;23.364;2024-02-23T12:38:33;3.40;;;2.10;;
11098;SDS011;12223;42.650;23.364;2024-02-23T12:40:59;2.33;;;1.48;;
11098;SDS011;12223;42.650;23.364;2024-02-23T12:43:25;2.75;;;1.65;;
11098;SDS011;12223;42.650;23.364;2024-02-23T12:45:52;3.10;;;1.58;;
11098;SDS011;12223;42.650;23.364;2024-02-23T12:48:21;1.95;;;1.45;;
11098;SDS011;12223;42.650;23.364;2024-02-23T12:50:47;7.55;;;1.95;;
11098;SDS011;12223;42.650;23.364;2024-02-23T12:56:04;1.63;;;1.52;;
11098;SDS011;12223;42.650;23.364;2024-02-23T12:58:33;3.22;;;1.88;;
11098;SDS011;12223;42.650;23.364;2024-02-23T13:01:00;3.58;;;1.55;;
11098;SDS011;12223;42.650;23.364;2024-02-23T13:03:25;2.50;;;1.70;;
11098;SDS011;12223;42.650;23.364;2024-02-23T13:05:54;1.98;;;1.60;;
11098;SDS011;12223;42.650;23.364;2024-02-23T13:08:21;2.30;;;1.73;;
11098;SDS011;12223;42.650;23.364;2024-02-23T13:10:49;3.58;;;2.50;;
11098;SDS011;12223;42.650;23.364;2024-02-23T13:13:15;3.33;;;2.47;;
11098;SDS011;12223;42.650;23.364;2024-02-23T13:15:41;3.10;;;2.15;;
11098;SDS011;12223;42.650;23.364;2024-02-23T13:18:07;5.00;;;2.15;;
11098;SDS011;12223;42.650;23.364;2024-02-23T13:20:32;1.00;;;0.90;;
11098;SDS011;12223;42.650;23.364;2024-02-23T13:22:59;2.20;;;1.25;;
11098;SDS011;12223;42.650;23.364;2024-02-23T13:25:25;3.28;;;1.83;;
11098;SDS011;12223;42.650;23.364;2024-02-23T13:27:50;3.33;;;2.20;;
11098;SDS011;12223;42.650;23.364;2024-02-23T13:30:15;4.32;;;1.65;;
11098;SDS011;12223;42.650;23.364;2024-02-23T13:32:41;3.78;;;2.13;;
11098;SDS011;12223;42.650;23.364;2024-02-23T13:35:06;5.05;;;1.27;;
11098;SDS011;12223;42.650;23.364;2024-02-23T13:37:33;2.38;;;1.58;;
11098;SDS011;12223;42.650;23.364;2024-02-23T13:39:59;3.60;;;1.63;;
11098;SDS011;12223;42.650;23.364;2024-02-23T13:42:24;3.60;;;2.10;;
11098;SDS011;12223;42.650;23.364;2024-02-23T13:44:50;2.25;;;1.67;;
11098;SDS011;12223;42.650;23.364;2024-02-23T13:47:15;2.50;;;2.05;;
11098;SDS011;12223;42.650;23.364;2024-02-23T13:49:41;3.00;;;1.95;;
11098;SDS011;12223;42.650;23.364;2024-02-23T13:52:06;2.80;;;1.88;;
11098;SDS011;12223;42.650;23.364;2024-02-23T13:54:32;2.25;;;2.05;;
11098;SDS011;12223;42.650;23.364;2024-02-23T13:56:57;3.05;;;1.55;;
11098;SDS011;12223;42.650;23.364;2024-02-23T13:59:22;5.63;;;2.08;;
11098;SDS011;12223;42.650;23.364;2024-02-23T14:01:48;4.30;;;2.05;;
11098;SDS011;12223;42.650;23.364;2024-02-23T14:04:13;4.53;;;1.52;;
11098;SDS011;12223;42.650;23.364;2024-02-23T14:06:39;5.85;;;1.67;;
11098;SDS011;12223;42.650;23.364;2024-02-23T14:09:04;3.20;;;2.22;;
11098;SDS011;12223;42.650;23.364;2024-02-23T14:11:30;4.43;;;1.70;;
11098;SDS011;12223;42.650;23.364;2024-02-23T14:13:56;2.40;;;1.85;;
11098;SDS011;12223;42.650;23.364;2024-02-23T14:16:22;4.07;;;2.10;;
11098;SDS011;12223;42.650;23.364;2024-02-23T14:18:48;1.42;;;1.30;;
11098;SDS011;12223;42.650;23.364;2024-02-23T14:21:14;2.40;;;2.20;;
11098;SDS011;12223;42.650;23.364;2024-02-23T14:23:40;2.80;;;1.25;;